This is the latest recevied weather packets stored in our database for station/object WX3I. If no packets are shown the sender has not sent any weather packets the latest 10 day(s).
| Time | Temp. | Humidity | Pressure | Rain* | Wind** | Luminosity | Snow |
|---|---|---|---|---|---|---|---|
| 1777490405 | 15.56° C | 54% | 1013.1 hPa | 0 mm | - | 1012 W/m² | - |
| 1777490104 | 16.11° C | 54% | 1013.3 hPa | 0 mm | - | 1026 W/m² | - |
| 1777487405 | 15.56° C | 56% | 1014 hPa | 0 mm | - | 1121 W/m² | - |
| 1777486204 | 16.11° C | 55% | 1014.1 hPa | 0 mm | - | 1148 W/m² | - |
| 1777485604 | 16.11° C | 55% | 1014.4 hPa | 0 mm | - | 1157 W/m² | - |
| 1777483204 | 16.11° C | 54% | 1015.1 hPa | 0 mm | - | 1168 W/m² | - |
| 1777482604 | 16.11° C | 56% | 1015.2 hPa | 0 mm | - | 1164 W/m² | - |
| 1777479604 | 15.56° C | 58% | 1015.4 hPa | 0 mm | - | 1105 W/m² | - |
| 1777478704 | 15° C | 59% | 1015.5 hPa | 0 mm | - | 1076 W/m² | - |
| 1777476304 | 14.44° C | 60% | 1016.2 hPa | 0 mm | - | 973 W/m² | - |
| 1777475104 | 14.44° C | 60% | 1016.2 hPa | 0 mm | - | 910 W/m² | - |
| 1777474505 | 14.44° C | 58% | 1016.3 hPa | 0 mm | - | 877 W/m² | - |
| 1777474204 | 13.89° C | 61% | 1016.3 hPa | 0 mm | - | 860 W/m² | - |
| 1777472704 | 13.33° C | 61% | 1016.4 hPa | 0 mm | - | 769 W/m² | - |
| 1777470004 | 12.22° C | 62% | 1016.7 hPa | 0 mm | - | 595 W/m² | - |
| 1777464604 | 11.67° C | 67% | 1016.9 hPa | 0 mm | - | 254 W/m² | - |
| 1777463104 | 11.11° C | 68% | 1017 hPa | 0 mm | - | 172 W/m² | - |
| 1777462804 | 11.11° C | 69% | 1017.2 hPa | 0 mm | - | 130 W/m² | - |
| 1777462504 | 11.11° C | 68% | 1017.2 hPa | 0 mm | - | 107 W/m² | - |
| 1777462205 | 11.11° C | 69% | 1017.4 hPa | 0 mm | - | 82 W/m² | - |
| 1777460404 | 11.11° C | 68% | 1016.9 hPa | 0 mm | - | 30 W/m² | - |
| 1777458004 | 10.56° C | 67% | 1016.9 hPa | 0 mm | - | 6 W/m² | - |
| 1777457404 | 11.11° C | 66% | 1017 hPa | 0 mm | - | 2 W/m² | - |
| 1777453205 | 11.11° C | 64% | 1017.4 hPa | 0 mm | - | 0 W/m² | - |
| 1777451704 | 11.11° C | 63% | 1017.4 hPa | 0 mm | - | 0 W/m² | - |
* Rain latest hour (hover to see other rain measurements)
** Current wind speed in m/s (hover to see current wind gust speed)